createdAt,value
2023-02-09T00:00:13.112Z,4.83
2023-02-09T00:02:40.520Z,4.65
2023-02-09T00:05:08.813Z,4.52
2023-02-09T00:07:36.075Z,4.76
2023-02-09T00:10:03.690Z,4.68
2023-02-09T00:12:49.970Z,4.90
2023-02-09T00:15:17.180Z,4.97
2023-02-09T00:17:44.614Z,4.96
2023-02-09T00:20:11.936Z,4.97
2023-02-09T00:22:39.073Z,4.99
2023-02-09T00:25:06.676Z,4.76
2023-02-09T00:27:35.739Z,4.61
2023-02-09T00:30:04.292Z,4.49
2023-02-09T00:32:32.858Z,4.39
2023-02-09T00:35:00.048Z,4.40
2023-02-09T00:37:28.426Z,4.48
2023-02-09T00:39:55.912Z,4.41
2023-02-09T00:42:23.064Z,4.37
2023-02-09T00:44:50.305Z,4.60
2023-02-09T00:47:17.793Z,4.65
2023-02-09T00:49:44.919Z,4.59
2023-02-09T00:52:12.084Z,4.57
2023-02-09T00:54:40.476Z,4.72
2023-02-09T00:57:07.643Z,4.75
2023-02-09T00:59:34.961Z,4.73
2023-02-09T01:02:02.980Z,4.76
2023-02-09T01:04:30.205Z,4.83
2023-02-09T01:06:57.384Z,4.68
2023-02-09T01:09:24.971Z,4.57
2023-02-09T01:11:52.130Z,4.79
2023-02-09T01:14:19.291Z,4.65
2023-02-09T01:16:46.869Z,4.62
2023-02-09T01:19:14.270Z,4.36
2023-02-09T01:21:41.617Z,4.24
2023-02-09T01:24:12.828Z,4.24
2023-02-09T01:26:40.073Z,4.19
2023-02-09T01:29:07.234Z,4.14
2023-02-09T01:31:35.748Z,4.27
2023-02-09T01:34:03.644Z,4.16
2023-02-09T01:36:31.309Z,4.02
2023-02-09T01:38:59.373Z,4.01
2023-02-09T01:41:26.761Z,3.68
2023-02-09T01:43:57.559Z,3.89
2023-02-09T01:46:26.234Z,3.90
2023-02-09T01:49:04.284Z,4.05
2023-02-09T01:51:32.742Z,4.31
2023-02-09T01:53:59.922Z,4.39
2023-02-09T01:56:28.710Z,4.53
2023-02-09T01:58:56.148Z,4.55
2023-02-09T02:01:23.559Z,4.51
2023-02-09T02:03:51.441Z,4.40
2023-02-09T02:06:18.577Z,4.35
2023-02-09T02:08:51.671Z,4.27
2023-02-09T02:11:19.159Z,4.01
2023-02-09T02:13:46.329Z,3.95
2023-02-09T02:16:35.139Z,3.98
2023-02-09T02:19:20.164Z,3.74
2023-02-09T02:22:06.821Z,3.50
2023-02-09T02:24:49.181Z,3.29
2023-02-09T02:27:28.544Z,3.28
2023-02-09T02:30:02.976Z,3.29
2023-02-09T02:32:37.706Z,3.45
2023-02-09T02:35:11.347Z,3.56
2023-02-09T02:37:57.637Z,3.78
2023-02-09T02:40:41.797Z,3.82
2023-02-09T02:43:11.687Z,3.94
2023-02-09T02:45:57.774Z,4.08
2023-02-09T02:48:28.319Z,4.11
2023-02-09T02:51:08.642Z,4.13
2023-02-09T02:53:36.566Z,4.27
2023-02-09T02:56:06.591Z,4.39
2023-02-09T02:58:33.879Z,4.34
2023-02-09T03:01:03.180Z,4.48
2023-02-09T03:03:31.950Z,4.56
2023-02-09T03:05:59.645Z,4.47
2023-02-09T03:08:27.143Z,4.35
2023-02-09T03:10:54.325Z,4.39
2023-02-09T03:13:24.542Z,4.30
2023-02-09T03:16:10.641Z,4.10
2023-02-09T03:18:48.512Z,3.72
2023-02-09T03:21:21.394Z,3.53
2023-02-09T03:23:51.615Z,3.50
2023-02-09T03:26:20.609Z,3.95
2023-02-09T03:28:48.517Z,4.16
2023-02-09T03:31:15.772Z,4.18
2023-02-09T03:33:43.391Z,4.16
2023-02-09T03:36:13.901Z,4.18
2023-02-09T03:38:41.109Z,4.23
2023-02-09T03:41:08.576Z,4.20
2023-02-09T03:43:54.428Z,4.06
2023-02-09T03:46:21.852Z,4.10
2023-02-09T03:48:50.743Z,4.05
2023-02-09T03:51:17.889Z,4.01
2023-02-09T03:53:47.175Z,3.95
2023-02-09T03:56:14.378Z,3.96
2023-02-09T03:58:41.738Z,3.91
2023-02-09T04:01:09.878Z,3.81
2023-02-09T04:03:38.024Z,3.63
2023-02-09T04:06:05.340Z,3.53
2023-02-09T04:08:33.807Z,3.08
2023-02-09T04:11:01.439Z,2.99
2023-02-09T04:13:28.606Z,3.18
2023-02-09T04:15:55.785Z,3.24
2023-02-09T04:18:23.259Z,3.34
2023-02-09T04:20:50.382Z,3.45
2023-02-09T04:23:19.481Z,3.44
2023-02-09T04:25:48.128Z,3.13
2023-02-09T04:28:17.988Z,3.17
2023-02-09T04:30:45.451Z,3.19
2023-02-09T04:33:13.250Z,3.18
2023-02-09T04:35:40.423Z,3.28
2023-02-09T04:38:07.578Z,3.51
2023-02-09T04:40:35.013Z,3.35
2023-02-09T04:43:02.152Z,3.67
2023-02-09T04:45:29.338Z,3.83
2023-02-09T04:47:56.824Z,3.78
2023-02-09T04:50:23.960Z,3.85
2023-02-09T04:52:51.633Z,3.79
2023-02-09T04:55:19.098Z,3.56
2023-02-09T04:58:04.794Z,3.39
2023-02-09T05:00:32.222Z,3.16
2023-02-09T05:02:59.484Z,3.35
2023-02-09T05:05:26.590Z,3.57
2023-02-09T05:07:54.011Z,3.59
2023-02-09T05:10:21.257Z,3.60
2023-02-09T05:12:48.384Z,3.38
2023-02-09T05:15:15.788Z,2.60
2023-02-09T05:17:42.960Z,2.84
2023-02-09T05:20:10.431Z,2.89
2023-02-09T05:22:38.326Z,2.72
2023-02-09T05:25:05.532Z,2.97
2023-02-09T05:27:32.701Z,3.13
2023-02-09T05:30:00.139Z,3.26
2023-02-09T05:32:27.482Z,3.34
2023-02-09T05:34:54.641Z,3.60
2023-02-09T05:37:22.054Z,3.71
2023-02-09T05:39:51.072Z,3.50
2023-02-09T05:42:18.238Z,3.48
2023-02-09T05:44:46.574Z,3.30
2023-02-09T05:47:14.432Z,3.35
2023-02-09T05:49:41.752Z,3.47
2023-02-09T05:52:09.335Z,3.53
2023-02-09T05:54:37.147Z,3.60
2023-02-09T05:57:04.625Z,3.80
2023-02-09T05:59:32.109Z,3.70
2023-02-09T06:01:59.410Z,3.82
2023-02-09T06:04:27.002Z,3.71
2023-02-09T06:06:54.393Z,3.34
2023-02-09T06:09:21.560Z,3.93
2023-02-09T06:11:49.320Z,4.06
2023-02-09T06:14:17.017Z,4.05
2023-02-09T06:16:44.325Z,3.99
2023-02-09T06:19:19.200Z,3.96
2023-02-09T06:21:46.621Z,3.52
2023-02-09T06:24:14.877Z,3.30
2023-02-09T06:26:42.106Z,3.07
2023-02-09T06:29:09.414Z,2.87
2023-02-09T06:31:38.121Z,2.94
2023-02-09T06:34:05.897Z,3.14
2023-02-09T06:36:33.180Z,3.12
2023-02-09T06:39:01.276Z,3.48
2023-02-09T06:41:28.444Z,3.95
2023-02-09T06:43:55.632Z,4.38
2023-02-09T06:46:23.177Z,4.49
2023-02-09T06:48:50.617Z,4.71
2023-02-09T06:51:17.910Z,4.88
2023-02-09T06:53:45.605Z,5.12
2023-02-09T06:56:13.268Z,5.22
2023-02-09T06:58:40.962Z,5.42
2023-02-09T07:01:09.950Z,5.44
2023-02-09T07:03:37.369Z,5.56
2023-02-09T07:06:05.875Z,5.73
2023-02-09T07:08:33.481Z,5.91
2023-02-09T07:11:04.104Z,6.18
2023-02-09T07:13:31.980Z,6.33
2023-02-09T07:16:00.029Z,6.71
2023-02-09T07:18:27.377Z,6.92
2023-02-09T07:20:57.424Z,6.98
2023-02-09T07:23:25.217Z,7.26
2023-02-09T07:25:52.447Z,7.17
2023-02-09T07:28:22.643Z,7.40
2023-02-09T07:30:51.955Z,7.11
2023-02-09T07:33:19.774Z,7.27
2023-02-09T07:35:47.335Z,7.79
2023-02-09T07:38:14.822Z,7.87
2023-02-09T07:40:46.401Z,8.41
2023-02-09T07:43:13.969Z,8.61
2023-02-09T07:45:41.739Z,9.33
2023-02-09T07:48:10.156Z,10.51
2023-02-09T07:50:37.456Z,10.47
2023-02-09T07:53:04.907Z,12.39
2023-02-09T07:55:32.069Z,12.00
2023-02-09T07:57:59.221Z,11.96
2023-02-09T08:00:26.836Z,11.21
2023-02-09T08:02:54.293Z,10.82
2023-02-09T08:05:23.039Z,9.72
2023-02-09T08:07:50.214Z,9.52
2023-02-09T08:10:18.540Z,8.83
2023-02-09T08:13:00.947Z,8.43
2023-02-09T08:15:37.398Z,7.72
2023-02-09T08:18:06.010Z,7.74
2023-02-09T08:20:33.654Z,7.33
2023-02-09T08:23:02.832Z,8.28
2023-02-09T08:25:29.969Z,6.82
2023-02-09T08:27:57.482Z,7.21
2023-02-09T08:30:24.675Z,7.24
2023-02-09T08:33:02.765Z,7.28
2023-02-09T08:35:30.786Z,8.02
2023-02-09T08:38:02.069Z,7.54
2023-02-09T08:40:29.912Z,7.73
2023-02-09T08:42:57.346Z,8.24
2023-02-09T08:45:24.633Z,6.69
2023-02-09T08:47:52.135Z,7.64
2023-02-09T08:50:19.328Z,7.46
2023-02-09T08:52:46.483Z,7.18
2023-02-09T08:55:13.907Z,7.86
2023-02-09T08:57:44.493Z,8.35
2023-02-09T09:00:12.379Z,8.14
2023-02-09T09:02:39.849Z,8.45
2023-02-09T09:05:07.089Z,8.27
2023-02-09T09:07:34.239Z,7.85
2023-02-09T09:10:01.697Z,8.46
2023-02-09T09:12:29.557Z,7.70
2023-02-09T09:14:56.795Z,8.16
2023-02-09T09:17:24.204Z,8.16
2023-02-09T09:19:55.751Z,7.53
2023-02-09T09:22:23.574Z,8.05
2023-02-09T09:24:52.436Z,8.45
2023-02-09T09:27:19.625Z,8.68
2023-02-09T09:29:46.819Z,9.43
2023-02-09T09:32:14.374Z,11.17
2023-02-09T09:34:42.015Z,11.32
2023-02-09T09:37:09.168Z,11.31
2023-02-09T09:39:36.584Z,12.46
2023-02-09T09:42:06.185Z,13.43
2023-02-09T09:44:35.123Z,13.97
2023-02-09T09:47:03.663Z,14.97
2023-02-09T09:49:31.560Z,17.20
2023-02-09T09:51:58.634Z,14.73
2023-02-09T09:54:27.247Z,17.02
2023-02-09T09:56:54.594Z,16.20
2023-02-09T09:59:22.656Z,14.92
2023-02-09T10:01:50.889Z,15.95
2023-02-09T10:04:19.650Z,15.90
2023-02-09T10:06:47.932Z,14.86
2023-02-09T10:09:36.308Z,15.83
2023-02-09T10:12:24.278Z,15.87
2023-02-09T10:14:51.483Z,14.37
2023-02-09T10:17:18.919Z,13.01
2023-02-09T10:19:59.277Z,12.19
2023-02-09T10:22:26.838Z,12.45
2023-02-09T10:24:54.196Z,10.16
2023-02-09T10:27:21.358Z,11.87
2023-02-09T10:29:48.806Z,11.01
2023-02-09T10:32:15.976Z,12.33
2023-02-09T10:34:46.312Z,11.27
2023-02-09T10:37:27.043Z,10.94
2023-02-09T10:39:54.191Z,11.62
2023-02-09T10:42:29.435Z,11.37
2023-02-09T10:44:57.273Z,11.24
2023-02-09T10:47:29.230Z,11.65
2023-02-09T10:50:00.984Z,12.53
2023-02-09T10:52:37.971Z,12.99
2023-02-09T10:55:06.858Z,11.81
2023-02-09T10:57:38.256Z,12.77
2023-02-09T11:00:17.557Z,10.31
2023-02-09T11:02:55.295Z,12.06
2023-02-09T11:05:22.630Z,12.28
2023-02-09T11:07:51.732Z,12.56
2023-02-09T11:10:20.488Z,12.00
2023-02-09T11:12:47.891Z,11.50
2023-02-09T11:15:15.990Z,11.67
2023-02-09T11:17:45.617Z,11.76
2023-02-09T11:20:17.607Z,11.34
2023-02-09T11:22:47.856Z,11.89
2023-02-09T11:25:15.106Z,11.42
2023-02-09T11:27:42.311Z,11.97
2023-02-09T11:30:18.704Z,10.62
2023-02-09T11:33:12.387Z,10.35
2023-02-09T11:35:39.844Z,10.34
2023-02-09T11:38:09.139Z,9.31
2023-02-09T11:40:52.429Z,9.53
2023-02-09T11:43:21.783Z,9.74
2023-02-09T11:45:49.585Z,9.86
2023-02-09T11:48:24.406Z,8.18
2023-02-09T11:51:04.317Z,7.84
2023-02-09T11:53:36.903Z,8.56
2023-02-09T11:56:05.623Z,9.37
2023-02-09T11:58:51.856Z,8.14
2023-02-09T12:01:48.460Z,8.74
2023-02-09T12:04:21.894Z,8.59
2023-02-09T12:06:50.065Z,8.08
2023-02-09T12:09:20.582Z,8.29
2023-02-09T12:11:50.736Z,8.19
2023-02-09T12:14:28.275Z,9.03
2023-02-09T12:17:05.761Z,8.72
2023-02-09T12:19:33.129Z,8.02
2023-02-09T12:22:19.182Z,8.45
2023-02-09T12:25:04.729Z,8.58
2023-02-09T12:27:31.915Z,8.91
2023-02-09T12:29:59.601Z,7.62
2023-02-09T12:32:30.796Z,9.14
2023-02-09T12:34:58.166Z,8.74
2023-02-09T12:37:28.038Z,7.64
2023-02-09T12:39:59.959Z,8.60
2023-02-09T12:42:28.277Z,9.46
2023-02-09T12:44:56.621Z,9.71
2023-02-09T12:47:40.314Z,9.11
2023-02-09T12:50:21.549Z,8.97
2023-02-09T12:53:07.657Z,7.34
2023-02-09T12:55:35.120Z,8.44
2023-02-09T12:58:02.304Z,8.35
2023-02-09T13:00:31.133Z,7.92
2023-02-09T13:02:58.549Z,8.38
2023-02-09T13:05:29.353Z,8.89
2023-02-09T13:08:18.763Z,9.14
2023-02-09T13:11:03.504Z,9.55
2023-02-09T13:13:30.678Z,9.62
2023-02-09T13:16:00.942Z,9.38
2023-02-09T13:18:34.270Z,8.38
2023-02-09T13:21:01.627Z,9.23
2023-02-09T13:23:28.820Z,8.71
2023-02-09T13:26:22.258Z,8.35
2023-02-09T13:28:49.796Z,9.15
2023-02-09T13:31:22.548Z,9.23
2023-02-09T13:33:51.437Z,9.55
2023-02-09T13:36:24.938Z,9.17
2023-02-09T13:38:52.993Z,8.44
2023-02-09T13:41:37.093Z,8.32
2023-02-09T13:44:05.741Z,8.90
2023-02-09T13:46:35.181Z,9.70
2023-02-09T13:49:16.261Z,9.53
2023-02-09T13:51:43.720Z,9.50
2023-02-09T13:54:21.114Z,9.15
2023-02-09T13:56:48.853Z,8.91
2023-02-09T13:59:17.706Z,9.41
2023-02-09T14:01:46.520Z,9.43
2023-02-09T14:04:25.461Z,10.09
2023-02-09T14:06:54.517Z,8.73
2023-02-09T14:09:27.334Z,9.15
2023-02-09T14:11:55.659Z,9.89
2023-02-09T14:14:23.073Z,9.16
2023-02-09T14:17:22.950Z,8.92
2023-02-09T14:19:52.412Z,9.46
2023-02-09T14:22:38.939Z,9.06
2023-02-09T14:25:15.703Z,7.63
2023-02-09T14:27:45.965Z,8.12
2023-02-09T14:30:17.176Z,9.01
2023-02-09T14:32:45.548Z,9.39
2023-02-09T14:35:26.040Z,7.71
2023-02-09T14:37:54.547Z,8.42
2023-02-09T14:40:21.703Z,9.20
2023-02-09T14:43:04.139Z,8.27
2023-02-09T14:45:36.484Z,8.86
2023-02-09T14:48:23.065Z,8.95
2023-02-09T14:50:51.478Z,8.23
2023-02-09T14:53:18.689Z,8.33
2023-02-09T14:55:46.248Z,9.04
2023-02-09T14:58:16.652Z,9.61
2023-02-09T15:00:43.851Z,8.15
2023-02-09T15:03:11.135Z,8.72
2023-02-09T15:05:38.623Z,7.84
2023-02-09T15:08:08.896Z,8.06
2023-02-09T15:10:37.170Z,7.94
2023-02-09T15:13:05.179Z,7.66
2023-02-09T15:15:33.360Z,8.53
2023-02-09T15:18:01.407Z,7.54
2023-02-09T15:20:31.381Z,7.58
2023-02-09T15:22:58.634Z,7.88
2023-02-09T15:25:25.901Z,7.49
2023-02-09T15:27:56.450Z,7.56
2023-02-09T15:30:28.165Z,8.50
2023-02-09T15:32:55.748Z,7.12
2023-02-09T15:35:24.416Z,8.57
2023-02-09T15:37:52.730Z,8.99
2023-02-09T15:40:43.072Z,9.19
2023-02-09T15:43:33.039Z,9.35
2023-02-09T15:46:18.812Z,9.30
2023-02-09T15:48:46.085Z,9.26
2023-02-09T15:51:13.845Z,8.43
2023-02-09T15:53:41.003Z,9.33
2023-02-09T15:56:08.373Z,9.40
2023-02-09T15:58:37.075Z,9.56
2023-02-09T16:01:04.683Z,8.94
2023-02-09T16:03:32.335Z,9.03
2023-02-09T16:06:00.102Z,8.66
2023-02-09T16:08:28.613Z,9.39
2023-02-09T16:10:56.496Z,9.36
2023-02-09T16:13:23.725Z,8.50
2023-02-09T16:15:51.003Z,9.01
2023-02-09T16:18:18.540Z,8.60
2023-02-09T16:20:47.240Z,9.28
2023-02-09T16:23:20.516Z,9.25
2023-02-09T16:25:49.894Z,9.59
2023-02-09T16:28:17.277Z,9.73
2023-02-09T16:30:48.939Z,9.78
2023-02-09T16:33:16.547Z,9.55
2023-02-09T16:35:44.281Z,9.52
2023-02-09T16:38:15.484Z,9.47
2023-02-09T16:40:43.146Z,9.42
2023-02-09T16:43:10.472Z,9.43
2023-02-09T16:45:38.713Z,9.19
2023-02-09T16:48:16.924Z,9.06
2023-02-09T16:50:46.837Z,8.96
2023-02-09T16:53:15.661Z,9.08
2023-02-09T16:55:43.040Z,9.05
2023-02-09T16:58:10.385Z,9.00
2023-02-09T17:00:38.279Z,9.14
2023-02-09T17:03:15.047Z,8.97
2023-02-09T17:05:47.457Z,9.09
2023-02-09T17:08:19.038Z,9.23
2023-02-09T17:10:47.260Z,9.19
2023-02-09T17:13:17.372Z,9.17
2023-02-09T17:15:45.631Z,9.24
2023-02-09T17:18:17.598Z,9.28
2023-02-09T17:20:46.241Z,9.19
2023-02-09T17:23:17.866Z,9.16
2023-02-09T17:25:45.881Z,9.17
2023-02-09T17:28:13.864Z,9.16
2023-02-09T17:30:41.514Z,9.15
2023-02-09T17:33:11.195Z,9.09
2023-02-09T17:38:27.109Z,8.64
2023-02-09T17:40:55.021Z,8.53
2023-02-09T17:43:22.634Z,8.85
2023-02-09T17:45:51.468Z,8.94
2023-02-09T17:48:19.462Z,8.94
2023-02-09T17:50:48.664Z,8.99
2023-02-09T17:53:22.056Z,8.96
2023-02-09T17:55:49.916Z,8.93
2023-02-09T17:58:17.499Z,8.85
2023-02-09T18:00:44.925Z,8.80
2023-02-09T18:03:16.917Z,8.66
2023-02-09T18:05:44.373Z,8.45
2023-02-09T18:08:11.920Z,8.09
2023-02-09T18:10:39.648Z,8.28
2023-02-09T18:13:06.973Z,8.16
2023-02-09T18:15:35.072Z,8.37
2023-02-09T18:18:02.958Z,8.31
2023-02-09T18:20:33.228Z,8.37
2023-02-09T18:23:02.587Z,8.39
2023-02-09T18:25:31.726Z,8.19
2023-02-09T18:27:59.033Z,8.36
2023-02-09T18:30:27.724Z,7.99
2023-02-09T18:32:55.545Z,8.22
2023-02-09T18:35:23.935Z,7.74
2023-02-09T18:37:51.300Z,7.74
2023-02-09T18:40:19.132Z,8.21
2023-02-09T18:42:46.761Z,8.27
2023-02-09T18:45:14.588Z,8.30
2023-02-09T18:47:43.288Z,8.09
2023-02-09T18:50:20.502Z,8.00
2023-02-09T18:52:48.749Z,7.79
2023-02-09T18:55:16.223Z,7.63
2023-02-09T18:57:43.522Z,7.63
2023-02-09T19:00:12.084Z,7.46
2023-02-09T19:02:39.461Z,7.09
2023-02-09T19:05:06.920Z,7.31
2023-02-09T19:07:35.894Z,7.40
2023-02-09T19:10:04.111Z,7.40
2023-02-09T19:12:31.480Z,7.40
2023-02-09T19:14:59.264Z,7.36
2023-02-09T19:17:26.621Z,7.19
2023-02-09T19:19:56.979Z,7.39
2023-02-09T19:22:24.857Z,7.35
2023-02-09T19:24:54.369Z,7.18
2023-02-09T19:27:21.812Z,7.55
2023-02-09T19:29:52.230Z,7.61
2023-02-09T19:32:19.773Z,7.56
2023-02-09T19:34:49.800Z,7.45
2023-02-09T19:37:18.776Z,7.16
2023-02-09T19:40:06.450Z,7.38
2023-02-09T19:42:34.149Z,7.37
2023-02-09T19:45:01.506Z,7.19
2023-02-09T19:47:30.005Z,7.21
2023-02-09T19:49:58.243Z,7.19
2023-02-09T19:52:25.915Z,7.00
2023-02-09T19:54:53.835Z,6.82
2023-02-09T19:57:22.026Z,6.87
2023-02-09T19:59:49.334Z,6.79
2023-02-09T20:02:16.950Z,6.53
2023-02-09T20:04:45.979Z,6.78
2023-02-09T20:07:13.477Z,6.78
2023-02-09T20:09:41.125Z,6.92
2023-02-09T20:12:08.778Z,6.76
2023-02-09T20:14:36.808Z,6.68
2023-02-09T20:17:04.231Z,6.50
2023-02-09T20:19:34.313Z,6.29
2023-02-09T20:22:01.658Z,6.09
2023-02-09T20:24:29.045Z,5.99
2023-02-09T20:26:56.637Z,5.94
2023-02-09T20:29:24.155Z,5.80
2023-02-09T20:31:51.608Z,5.47
2023-02-09T20:34:19.364Z,5.74
2023-02-09T20:36:48.196Z,6.12
2023-02-09T20:39:16.425Z,6.28
2023-02-09T20:42:04.834Z,6.09
2023-02-09T20:45:02.586Z,6.12
2023-02-09T20:47:30.645Z,5.98
2023-02-09T20:49:59.895Z,6.07
2023-02-09T20:52:28.238Z,6.04
2023-02-09T20:54:55.794Z,6.08
2023-02-09T20:57:29.259Z,5.68
2023-02-09T20:59:57.604Z,5.97
2023-02-09T21:02:25.199Z,5.88
2023-02-09T21:04:56.019Z,5.75
2023-02-09T21:07:25.165Z,5.91
2023-02-09T21:09:54.105Z,5.68
2023-02-09T21:12:21.683Z,5.76
2023-02-09T21:14:50.777Z,5.59
2023-02-09T21:17:18.745Z,5.59
2023-02-09T21:19:46.055Z,5.31
2023-02-09T21:22:14.073Z,5.58
2023-02-09T21:24:41.771Z,5.35
2023-02-09T21:27:09.148Z,5.10
2023-02-09T21:29:36.658Z,4.62
2023-02-09T21:32:04.729Z,4.80
2023-02-09T21:34:32.138Z,4.88
2023-02-09T21:36:59.594Z,4.69
2023-02-09T21:39:27.028Z,4.78
2023-02-09T21:42:13.121Z,4.78
2023-02-09T21:44:40.637Z,4.52
2023-02-09T21:47:08.067Z,4.76
2023-02-09T21:49:35.351Z,4.90
2023-02-09T21:52:02.810Z,4.80
2023-02-09T21:54:33.908Z,4.52
2023-02-09T21:57:01.116Z,4.82
2023-02-09T21:59:28.791Z,4.25
2023-02-09T22:01:56.050Z,5.02
2023-02-09T22:04:23.607Z,4.99
2023-02-09T22:06:50.860Z,4.80
2023-02-09T22:09:20.189Z,4.45
2023-02-09T22:11:47.650Z,4.17
2023-02-09T22:14:14.805Z,4.13
2023-02-09T22:16:42.590Z,4.57
2023-02-09T22:19:10.288Z,4.64
2023-02-09T22:21:37.473Z,4.35
2023-02-09T22:24:04.744Z,4.51
2023-02-09T22:26:32.176Z,5.03
2023-02-09T22:28:59.295Z,4.64
2023-02-09T22:31:26.525Z,4.59
2023-02-09T22:33:54.254Z,4.36
2023-02-09T22:36:21.579Z,4.25
2023-02-09T22:38:48.820Z,4.17
2023-02-09T22:41:22.875Z,4.22
2023-02-09T22:43:54.843Z,4.03
2023-02-09T22:46:23.068Z,4.29
2023-02-09T22:48:57.642Z,4.66
2023-02-09T22:51:26.925Z,4.74
2023-02-09T22:53:54.640Z,4.39
2023-02-09T22:56:21.832Z,4.26
2023-02-09T22:58:49.234Z,4.41
2023-02-09T23:01:16.522Z,4.30
2023-02-09T23:03:43.760Z,4.33
2023-02-09T23:06:12.754Z,4.25
2023-02-09T23:08:39.939Z,4.38
2023-02-09T23:11:08.812Z,4.33
2023-02-09T23:13:36.509Z,4.30
2023-02-09T23:16:10.674Z,4.07
2023-02-09T23:18:38.438Z,4.08
2023-02-09T23:21:06.716Z,4.08
2023-02-09T23:23:34.064Z,3.89
2023-02-09T23:26:01.630Z,3.80
2023-02-09T23:28:28.845Z,3.92
2023-02-09T23:30:56.123Z,4.20
2023-02-09T23:33:23.587Z,4.19
2023-02-09T23:35:50.736Z,4.39
2023-02-09T23:38:19.963Z,4.36
2023-02-09T23:40:47.446Z,4.16
2023-02-09T23:43:14.614Z,3.62
2023-02-09T23:45:41.835Z,3.73
2023-02-09T23:48:09.378Z,4.14
2023-02-09T23:50:36.537Z,4.31
2023-02-09T23:53:03.992Z,4.07
2023-02-09T23:55:31.493Z,4.06
2023-02-09T23:57:58.647Z,4.04
